메인 페이지
METAR-TAF:

METAR-TAF

공항 :

샬럿 더글러스 국제공항

샬럿, 노스캐롤라이나, 미국

위도: 35-12-48N, 경도: 080-56-55W, 고도: 228m

현재 날씨관측

예보는 22분 전, 03:52시(UTC)에 발표되었습니다.
서남서7kt
온도 21°C
습도 56%
기압 1017 hPa
시정: 16.1km
고도 23000ft 상공 흐림

METAR: KCLT 180352Z 24007KT 10SM OVC230 21/12 A3004 RMK AO2 SLP179 T02110117

시각: 00:14 (04:14 UTC)

예보

예보는 4 시간 40분 전, 23:34시(UTC)에 발표되었습니다.
예보 대상 시간: 18일 00시부터 19일 06시까지 (UTC)
남남서8kt
시정: 10km
고도 5000ft 상공 구름 조금
고도 12000ft 상공 구름 많음
18일 0700시부터 (UTC)
서남서4kt
시정: 10km
고도 25000ft 상공 구름 보통

TAF: KCLT 172334Z 1800/1906 21008KT P6SM FEW050 BKN120 FM180700 24004KT P6SM SCT250

4,000개 이상의 공항 관측 자료 및 예보 (METAR 및 TAF 보고).

지도상에서 검색 가능한 기상관측소가 노란 점과 빨간 점으로 표시되어 있습니다.

기상관측소 명을 보려면 표시 위로 마우스를 이동하세요.

날씨 관측과 예보를 보려면 클릭하세요.

지도 변경 : 확대하려면 엑스 표시가 있는 녹색 버튼, 축소하려면 빼기 표시가 있는 녹색 버튼, 다음 페이지의 지도를 보려면 녹색 화살표를 클릭하세요.


METAR-TAF: